createdAt,value
2023-03-18T00:01:47.932Z,6.08
2023-03-18T00:06:54.563Z,8.92
2023-03-18T00:12:00.670Z,5.78
2023-03-18T00:17:07.036Z,7.91
2023-03-18T00:22:13.258Z,5.98
2023-03-18T00:27:19.642Z,5.48
2023-03-18T00:32:25.732Z,6.08
2023-03-18T00:37:32.519Z,5.78
2023-03-18T00:42:38.717Z,7.10
2023-03-18T00:47:45.385Z,6.90
2023-03-18T00:52:51.626Z,7.30
2023-03-18T00:57:58.223Z,5.98
2023-03-18T01:03:04.486Z,6.49
2023-03-18T01:08:11.112Z,6.79
2023-03-18T01:13:17.326Z,8.82
2023-03-18T01:18:23.694Z,6.19
2023-03-18T01:23:29.980Z,7.40
2023-03-18T01:28:36.586Z,10.95
2023-03-18T01:33:42.784Z,6.39
2023-03-18T01:38:50.385Z,9.02
2023-03-18T01:43:56.505Z,10.95
2023-03-18T01:49:02.919Z,11.46
2023-03-18T01:54:09.214Z,9.84
2023-03-18T01:59:16.741Z,10.65
2023-03-18T02:04:22.936Z,5.98
2023-03-18T02:09:29.448Z,8.21
2023-03-18T02:14:35.440Z,5.98
2023-03-18T02:19:41.893Z,8.21
2023-03-18T02:24:48.033Z,7.50
2023-03-18T02:29:54.334Z,8.11
2023-03-18T02:35:00.580Z,7.71
2023-03-18T02:40:07.466Z,5.98
2023-03-18T02:45:13.518Z,6.59
2023-03-18T02:50:21.233Z,5.98
2023-03-18T02:55:28.474Z,10.14
2023-03-18T03:00:34.975Z,7.40
2023-03-18T03:05:41.040Z,6.08
2023-03-18T03:10:47.786Z,9.13
2023-03-18T03:15:54.957Z,7.20
2023-03-18T03:21:02.478Z,11.46
2023-03-18T03:26:08.697Z,8.11
2023-03-18T03:31:15.119Z,6.90
2023-03-18T03:36:22.170Z,5.88
2023-03-18T03:41:28.492Z,10.95
2023-03-18T03:46:34.783Z,5.98
2023-03-18T03:51:42.283Z,7.81
2023-03-18T03:56:48.515Z,12.17
2023-03-18T04:01:54.866Z,6.79
2023-03-18T04:07:01.323Z,11.66
2023-03-18T04:12:09.899Z,6.29
2023-03-18T04:17:16.115Z,8.21
2023-03-18T04:22:22.724Z,9.84
2023-03-18T04:27:29.053Z,8.01
2023-03-18T04:32:35.395Z,9.63
2023-03-18T04:37:41.633Z,10.34
2023-03-18T04:42:48.256Z,11.86
2023-03-18T04:47:54.456Z,6.08
2023-03-18T04:53:01.171Z,11.66
2023-03-18T04:58:08.240Z,9.43
2023-03-18T05:03:17.175Z,8.42
2023-03-18T05:08:23.264Z,5.48
2023-03-18T05:13:30.937Z,11.46
2023-03-18T05:18:38.021Z,8.82
2023-03-18T05:23:45.553Z,10.44
2023-03-18T05:28:51.765Z,9.33
2023-03-18T05:33:58.533Z,7.81
2023-03-18T05:39:04.649Z,7.61
2023-03-18T05:44:11.142Z,8.42
2023-03-18T05:49:18.141Z,9.73
2023-03-18T05:54:24.925Z,8.82
2023-03-18T05:59:31.434Z,9.53
2023-03-18T06:04:37.962Z,8.31
2023-03-18T06:09:44.239Z,7.61
2023-03-18T06:14:50.952Z,8.21
2023-03-18T06:19:57.015Z,6.08
2023-03-18T06:25:03.736Z,9.43
2023-03-18T06:30:09.956Z,8.62
2023-03-18T06:35:16.247Z,10.55
2023-03-18T06:40:22.497Z,5.98
2023-03-18T06:45:28.965Z,10.44
2023-03-18T06:50:35.085Z,8.11
2023-03-18T06:55:42.025Z,12.17
2023-03-18T07:00:48.222Z,6.29
2023-03-18T07:05:54.924Z,6.19
2023-03-18T07:11:01.099Z,6.49
2023-03-18T07:16:07.556Z,6.69
2023-03-18T07:21:13.778Z,9.13
2023-03-18T07:26:20.365Z,7.71
2023-03-18T07:31:27.743Z,5.78
2023-03-18T07:36:34.196Z,5.98
2023-03-18T07:41:40.372Z,7.00
2023-03-18T07:46:47.109Z,5.37
2023-03-18T07:51:53.046Z,5.68
2023-03-18T07:56:59.383Z,7.00
2023-03-18T08:02:05.574Z,5.98
2023-03-18T08:07:12.140Z,6.08
2023-03-18T08:12:19.175Z,6.08
2023-03-18T08:17:24.178Z,4.06
2023-03-18T08:22:30.365Z,6.90
2023-03-18T08:27:36.795Z,5.58
2023-03-18T08:32:42.878Z,5.98
2023-03-18T08:37:49.325Z,5.68
2023-03-18T08:42:55.607Z,6.79
2023-03-18T08:48:02.131Z,5.88
2023-03-18T08:53:08.406Z,4.87
2023-03-18T08:58:15.068Z,6.69
2023-03-18T09:03:22.346Z,4.77
2023-03-18T09:08:28.956Z,6.08
2023-03-18T09:13:35.990Z,5.98
2023-03-18T09:18:43.973Z,4.66
2023-03-18T09:23:47.966Z,5.78
2023-03-18T09:28:54.605Z,4.26
2023-03-18T09:34:00.845Z,6.08
2023-03-18T09:39:08.313Z,4.46
2023-03-18T09:44:14.593Z,6.29
2023-03-18T09:49:22.197Z,4.66
2023-03-18T09:54:29.294Z,6.39
2023-03-18T09:59:35.919Z,5.78
2023-03-18T10:04:44.374Z,5.68
2023-03-18T10:09:51.014Z,4.97
2023-03-18T10:14:57.175Z,5.48
2023-03-18T10:20:04.040Z,5.98
2023-03-18T10:25:10.440Z,4.97
2023-03-18T10:30:16.721Z,5.68
2023-03-18T10:35:22.968Z,3.35
2023-03-18T10:40:29.561Z,3.45
2023-03-18T10:45:35.884Z,1.32
2023-03-18T10:50:43.514Z,0.00
2023-03-18T10:55:50.819Z,2.23
2023-03-18T11:01:02.444Z,2.03
2023-03-18T11:05:58.879Z,3.24
2023-03-18T11:11:05.193Z,0.41
2023-03-18T11:16:13.984Z,0.91
2023-03-18T11:21:20.058Z,1.01
2023-03-18T11:26:27.718Z,0.41
2023-03-18T11:31:33.916Z,3.95
2023-03-18T11:36:40.244Z,2.94
2023-03-18T11:41:46.386Z,3.57
2023-03-18T11:46:52.878Z,3.61
2023-03-18T11:51:58.993Z,1.09
2023-03-18T11:57:06.864Z,0.00
2023-03-18T12:02:13.308Z,2.67
2023-03-18T12:07:19.938Z,1.18
2023-03-18T12:12:26.527Z,0.00
2023-03-18T12:17:33.203Z,0.96
2023-03-18T12:22:39.512Z,1.50
2023-03-18T12:27:48.540Z,3.57
2023-03-18T12:32:56.624Z,0.59
2023-03-18T12:38:02.662Z,0.00
2023-03-18T12:43:10.210Z,2.99
2023-03-18T12:48:17.021Z,0.00
2023-03-18T12:53:24.496Z,0.00
2023-03-18T12:58:31.334Z,0.13
2023-03-18T13:03:38.072Z,0.47
2023-03-18T13:08:45.006Z,0.00
2023-03-18T13:13:51.324Z,0.91
2023-03-18T13:18:59.151Z,2.54
2023-03-18T13:24:05.684Z,0.00
2023-03-18T13:29:12.190Z,0.20
2023-03-18T13:34:18.501Z,1.12
2023-03-18T13:39:26.380Z,0.00
2023-03-18T13:44:32.594Z,0.10
2023-03-18T13:49:39.522Z,0.00
2023-03-18T13:54:47.267Z,0.00
2023-03-18T13:59:52.761Z,2.03
2023-03-18T14:04:59.258Z,0.00
2023-03-18T14:10:18.467Z,0.00
2023-03-18T14:15:12.059Z,0.30
2023-03-18T14:20:18.771Z,0.00
2023-03-18T14:25:25.203Z,1.42
2023-03-18T14:30:32.367Z,0.71
2023-03-18T14:35:38.964Z,0.91
2023-03-18T14:40:47.079Z,1.52
2023-03-18T14:45:54.664Z,0.30
2023-03-18T14:51:01.452Z,0.00
2023-03-18T14:56:07.897Z,0.00
2023-03-18T15:01:15.852Z,0.30
2023-03-18T15:06:21.580Z,0.10
2023-03-18T15:11:28.289Z,0.00
2023-03-18T15:16:34.781Z,1.78
2023-03-18T15:21:41.604Z,0.51
2023-03-18T15:26:48.069Z,2.22
2023-03-18T15:31:54.746Z,0.00
2023-03-18T15:37:01.253Z,0.91
2023-03-18T15:42:07.888Z,0.00
2023-03-18T15:47:14.429Z,0.81
2023-03-18T15:52:21.303Z,0.85
2023-03-18T15:57:27.895Z,0.26
2023-03-18T16:02:34.973Z,1.60
2023-03-18T16:07:41.336Z,0.51
2023-03-18T16:12:48.878Z,1.13
2023-03-18T16:17:55.486Z,2.23
2023-03-18T16:23:02.423Z,0.31
2023-03-18T16:28:10.000Z,0.22
2023-03-18T16:33:16.786Z,0.93
2023-03-18T16:38:23.935Z,0.00
2023-03-18T16:43:30.912Z,0.00
2023-03-18T16:48:38.976Z,0.00
2023-03-18T16:53:46.174Z,1.12
2023-03-18T16:58:53.655Z,0.10
2023-03-18T17:04:02.247Z,0.21
2023-03-18T17:09:08.758Z,0.00
2023-03-18T17:14:16.475Z,4.66
2023-03-18T17:19:22.700Z,3.45
2023-03-18T17:24:29.478Z,1.24
2023-03-18T17:29:36.146Z,0.83
2023-03-18T17:34:42.619Z,5.98
2023-03-18T17:39:49.314Z,4.87
2023-03-18T17:44:57.104Z,2.94
2023-03-18T17:50:04.522Z,3.14
2023-03-18T17:55:11.328Z,2.74
2023-03-18T18:00:17.683Z,0.30
2023-03-18T18:05:24.423Z,0.51
2023-03-18T18:10:48.529Z,0.30
2023-03-18T18:15:36.369Z,3.55
2023-03-18T18:20:44.087Z,1.01
2023-03-18T18:25:50.725Z,4.06
2023-03-18T18:30:57.291Z,4.56
2023-03-18T18:36:04.005Z,5.58
2023-03-18T18:41:10.375Z,3.95
2023-03-18T18:46:18.470Z,6.79
2023-03-18T18:51:24.780Z,7.00
2023-03-18T18:56:31.953Z,3.45
2023-03-18T19:01:38.291Z,7.10
2023-03-18T19:06:45.347Z,4.16
2023-03-18T19:11:51.755Z,4.26
2023-03-18T19:16:59.530Z,5.68
2023-03-18T19:22:06.859Z,3.35
2023-03-18T19:27:14.507Z,6.19
2023-03-18T19:32:20.849Z,4.46
2023-03-18T19:37:28.598Z,2.94
2023-03-18T19:42:35.986Z,5.07
2023-03-18T19:47:42.684Z,3.24
2023-03-18T19:52:49.215Z,4.97
2023-03-18T19:57:55.765Z,6.69
2023-03-18T20:03:02.305Z,7.50
2023-03-18T20:08:08.956Z,1.83
2023-03-18T20:13:15.437Z,5.17
2023-03-18T20:18:22.564Z,0.10
2023-03-18T20:23:29.954Z,5.88
2023-03-18T20:28:36.958Z,5.88
2023-03-18T20:33:43.887Z,5.58
2023-03-18T20:38:51.309Z,5.68
2023-03-18T20:43:57.901Z,5.27
2023-03-18T20:49:04.851Z,4.97
2023-03-18T20:54:11.300Z,6.08
2023-03-18T20:59:17.971Z,6.69
2023-03-18T21:04:24.461Z,3.65
2023-03-18T21:09:31.034Z,4.97
2023-03-18T21:14:37.355Z,6.19
2023-03-18T21:19:44.458Z,5.68
2023-03-18T21:24:50.764Z,6.19
2023-03-18T21:29:58.516Z,5.78
2023-03-18T21:35:04.930Z,5.98
2023-03-18T21:40:11.872Z,5.98
2023-03-18T21:45:18.142Z,5.58
2023-03-18T21:50:24.841Z,4.77
2023-03-18T21:55:31.547Z,5.68
2023-03-18T22:00:45.789Z,5.58
2023-03-18T22:05:42.392Z,4.87
2023-03-18T22:10:50.335Z,4.87
2023-03-18T22:15:57.700Z,4.77
2023-03-18T22:21:04.453Z,4.56
2023-03-18T22:26:10.818Z,3.75
2023-03-18T22:31:17.676Z,1.12
2023-03-18T22:36:24.009Z,5.48
2023-03-18T22:41:30.815Z,5.98
2023-03-18T22:46:37.206Z,6.90
2023-03-18T22:51:43.898Z,5.37
2023-03-18T22:56:50.058Z,3.85
2023-03-18T23:01:57.142Z,5.78
2023-03-18T23:07:03.581Z,3.45
2023-03-18T23:12:11.508Z,2.64
2023-03-18T23:17:17.943Z,5.48
2023-03-18T23:22:24.631Z,5.58
2023-03-18T23:27:31.098Z,4.77
2023-03-18T23:32:37.898Z,5.88
2023-03-18T23:37:45.167Z,5.98
2023-03-18T23:42:52.054Z,5.48
2023-03-18T23:47:58.506Z,2.54
2023-03-18T23:53:05.134Z,3.55
2023-03-18T23:58:12.638Z,4.26
